Little Fort, Canada
Current Conditions -  °F | °C
As of 4:00 PM on Sunday 25 Jan 2015 (Local Time) from CYKA Reporting Station
Scattered Clouds Scattered Clouds  
Wind Chill: 36°   Ceiling: Unl
Heat Index: 43°   Visibility: 40mi
Dew Point: 36°   Wind: 13mph
Humidity: 76%   Direction: 130°SE
Pressure: 30.09"   Gusts: NA
Location:  51.43°N, 120.2°W
Report Text: CYKA 260000Z 13011KT 40SM FEW085 SCT250 06/02 A3009 RMK AC1CI3 SLP202
Loading
Personal Weather Stations






























Interactive Weather Map New forecast layout! Learn more

10-Day Weather Forecast

Advertisements
Track Severe Weather on mobile